Forside
METAR-TAF:

METAR-TAF

Lufthavne :

Taipei, Taiwan

Breddekreds: 25-05N, længdekreds: 121-13E, højde: 33 m

Aktuelle vejr

Denne rapport blev lavet for 40 minutter siden, kl. 11:30 UTC
Vind 13 kt fra østnordøst
Temperatur 14°C
Fugtighed 67%
Tryk 1022 hPa
Sigt 10 km eller mere
Nogle få skyer i en højde af 1500 ft
Brudte skyer i en højde af 5000 ft

METAR: RCTP 221130Z 07013KT 9999 FEW015 BKN050 14/08 Q1022 NOSIG RMK A3020

Tid: 20:10 (12:10 UTC)

Vejrudsigter

Denne rapport blev lavet for 1 time og 10 minutter siden, kl. 11:00 UTC
Foreløbig gælder fra 22 på 12 UTC til 23 på 18 UTC
Vind 12 kt fra nordøst
Sigt 10 km eller mere
Nogle få skyer i en højde af 1200 ft
Brudte skyer i en højde af 3200 ft
Brudte skyer i en højde af 6000 ft
Midlertidig
fra 22 på 18 UTC til 22 på 24 UTC
Vind 7 kt fra øst
Midlertidig
fra 23 på 03 UTC til 23 på 09 UTC
Vind 18 kt fra nordnordøst

TAF: RCTP 221100Z 2212/2318 05012KT 9999 FEW012 BKN032 BKN060 TEMPO 2218/2224 10007KT TEMPO 2303/2309 02018KT

Vejrobservationer og prognoser fra mere end 4000 lufthavne (METAR og TAF).

De gule og røde prikker repræsenterer de meteorologiske stationer.

Flyt musen over at se navnet på stationen.

Så klik over at se vejr observationer og prognoser.

At skifte det kort: Klik på de grønne knapper med et sort kors for at zoome ind; på den grønne knap med en bindestreg for at zoome ud; eller på de grønne pile for tilstødende kort.


METAR-TAF: